sensor_id;sensor_type;location;lat;lon;timestamp;P1;durP1;ratioP1;P2;durP2;ratioP2
44126;SDS011;29786;50.798;7.302;2022-08-19T00:00:58;28.5;;;24.8;;
44126;SDS011;29786;50.798;7.302;2022-08-19T00:01:58;27.4;;;24.6;;
44126;SDS011;29786;50.798;7.302;2022-08-19T00:02:58;28.9;;;25.9;;
44126;SDS011;29786;50.798;7.302;2022-08-19T00:03:59;28.1;;;25.1;;
44126;SDS011;29786;50.798;7.302;2022-08-19T00:04:58;29.8;;;24.5;;
44126;SDS011;29786;50.798;7.302;2022-08-19T00:05:58;28.7;;;25.6;;
44126;SDS011;29786;50.798;7.302;2022-08-19T00:06:59;30;;;25.1;;
44126;SDS011;29786;50.798;7.302;2022-08-19T00:07:58;28.3;;;25.2;;
44126;SDS011;29786;50.798;7.302;2022-08-19T00:08:58;27.6;;;24.6;;
44126;SDS011;29786;50.798;7.302;2022-08-19T00:09:58;27.8;;;23.9;;
44126;SDS011;29786;50.798;7.302;2022-08-19T00:10:58;27.9;;;24;;
44126;SDS011;29786;50.798;7.302;2022-08-19T00:11:58;26.7;;;23.8;;
44126;SDS011;29786;50.798;7.302;2022-08-19T00:12:58;27.1;;;23.4;;
44126;SDS011;29786;50.798;7.302;2022-08-19T00:13:58;28;;;23.5;;
44126;SDS011;29786;50.798;7.302;2022-08-19T00:14:58;27.6;;;22.7;;
44126;SDS011;29786;50.798;7.302;2022-08-19T00:15:58;26.5;;;22.9;;
44126;SDS011;29786;50.798;7.302;2022-08-19T00:16:59;26.9;;;22.7;;
44126;SDS011;29786;50.798;7.302;2022-08-19T00:17:58;25.1;;;22.4;;
44126;SDS011;29786;50.798;7.302;2022-08-19T00:18:58;25;;;22.3;;
44126;SDS011;29786;50.798;7.302;2022-08-19T00:19:58;25.1;;;21.1;;
44126;SDS011;29786;50.798;7.302;2022-08-19T00:20:59;23.8;;;21.3;;
44126;SDS011;29786;50.798;7.302;2022-08-19T00:21:58;21.4;;;19.1;;
44126;SDS011;29786;50.798;7.302;2022-08-19T00:22:58;21.8;;;19.5;;
44126;SDS011;29786;50.798;7.302;2022-08-19T00:23:58;19.2;;;17.1;;
44126;SDS011;29786;50.798;7.302;2022-08-19T00:24:58;22.5;;;19.6;;
44126;SDS011;29786;50.798;7.302;2022-08-19T00:25:58;22.7;;;19.8;;
44126;SDS011;29786;50.798;7.302;2022-08-19T00:26:58;21.2;;;18.9;;
44126;SDS011;29786;50.798;7.302;2022-08-19T00:27:59;20.4;;;18.2;;
44126;SDS011;29786;50.798;7.302;2022-08-19T00:28:58;19.4;;;16.1;;
44126;SDS011;29786;50.798;7.302;2022-08-19T00:29:58;19.8;;;17.7;;
44126;SDS011;29786;50.798;7.302;2022-08-19T00:30:59;20.1;;;18;;
44126;SDS011;29786;50.798;7.302;2022-08-19T00:31:59;20.5;;;18.3;;
44126;SDS011;29786;50.798;7.302;2022-08-19T00:32:59;19.1;;;17.1;;
44126;SDS011;29786;50.798;7.302;2022-08-19T00:33:58;21.9;;;19.7;;
44126;SDS011;29786;50.798;7.302;2022-08-19T00:34:58;22;;;19.8;;
44126;SDS011;29786;50.798;7.302;2022-08-19T00:35:59;22.9;;;19.6;;
44126;SDS011;29786;50.798;7.302;2022-08-19T00:36:58;20.4;;;16.9;;
44126;SDS011;29786;50.798;7.302;2022-08-19T00:37:58;21.4;;;19.2;;
44126;SDS011;29786;50.798;7.302;2022-08-19T00:38:58;20.7;;;18.7;;
44126;SDS011;29786;50.798;7.302;2022-08-19T00:39:58;21.1;;;19;;
44126;SDS011;29786;50.798;7.302;2022-08-19T00:40:58;21.5;;;17.7;;
44126;SDS011;29786;50.798;7.302;2022-08-19T00:41:58;21.1;;;19;;
44126;SDS011;29786;50.798;7.302;2022-08-19T00:42:58;24.9;;;22.2;;
44126;SDS011;29786;50.798;7.302;2022-08-19T00:44:00;23.8;;;21.3;;
44126;SDS011;29786;50.798;7.302;2022-08-19T00:44:58;25.9;;;22.1;;
44126;SDS011;29786;50.798;7.302;2022-08-19T00:45:58;25.3;;;22.6;;
44126;SDS011;29786;50.798;7.302;2022-08-19T00:46:58;26;;;23.3;;
44126;SDS011;29786;50.798;7.302;2022-08-19T00:47:58;27.4;;;23.8;;
44126;SDS011;29786;50.798;7.302;2022-08-19T00:48:59;26.6;;;23.8;;
44126;SDS011;29786;50.798;7.302;2022-08-19T00:49:58;27;;;24.1;;
44126;SDS011;29786;50.798;7.302;2022-08-19T00:50:59;28.9;;;25.8;;
44126;SDS011;29786;50.798;7.302;2022-08-19T00:52:01;26.7;;;23.8;;
44126;SDS011;29786;50.798;7.302;2022-08-19T00:52:58;29.8;;;26;;
44126;SDS011;29786;50.798;7.302;2022-08-19T00:53:58;28.6;;;25.5;;
44126;SDS011;29786;50.798;7.302;2022-08-19T00:54:59;29.7;;;26;;
44126;SDS011;29786;50.798;7.302;2022-08-19T00:55:59;28.4;;;24.9;;
44126;SDS011;29786;50.798;7.302;2022-08-19T00:56:59;28.7;;;25.1;;
44126;SDS011;29786;50.798;7.302;2022-08-19T00:58:01;29.1;;;24.4;;
44126;SDS011;29786;50.798;7.302;2022-08-19T00:58:58;25.4;;;21.9;;
44126;SDS011;29786;50.798;7.302;2022-08-19T00:59:59;25.3;;;22.7;;
44126;SDS011;29786;50.798;7.302;2022-08-19T01:01:01;27.1;;;24.2;;
44126;SDS011;29786;50.798;7.302;2022-08-19T01:01:59;25.5;;;22.3;;
44126;SDS011;29786;50.798;7.302;2022-08-19T01:02:58;26;;;22.5;;
44126;SDS011;29786;50.798;7.302;2022-08-19T01:03:59;28.3;;;24.1;;
44126;SDS011;29786;50.798;7.302;2022-08-19T01:04:59;26.9;;;24;;
44126;SDS011;29786;50.798;7.302;2022-08-19T01:05:58;25.8;;;23.1;;
44126;SDS011;29786;50.798;7.302;2022-08-19T01:06:58;26.7;;;22.8;;
44126;SDS011;29786;50.798;7.302;2022-08-19T01:07:59;25.7;;;23;;
44126;SDS011;29786;50.798;7.302;2022-08-19T01:08:59;27.7;;;24.1;;
44126;SDS011;29786;50.798;7.302;2022-08-19T01:09:59;29;;;24.6;;
44126;SDS011;29786;50.798;7.302;2022-08-19T01:10:59;27.2;;;23.2;;
44126;SDS011;29786;50.798;7.302;2022-08-19T01:11:58;30;;;24.2;;
44126;SDS011;29786;50.798;7.302;2022-08-19T01:12:59;23.8;;;21.3;;
44126;SDS011;29786;50.798;7.302;2022-08-19T01:13:58;24.5;;;21.5;;
44126;SDS011;29786;50.798;7.302;2022-08-19T01:14:58;23.7;;;21.1;;
44126;SDS011;29786;50.798;7.302;2022-08-19T01:16:03;25.4;;;22.6;;
44126;SDS011;29786;50.798;7.302;2022-08-19T01:16:59;25.6;;;22.8;;
44126;SDS011;29786;50.798;7.302;2022-08-19T01:18:01;27.9;;;22.7;;
44126;SDS011;29786;50.798;7.302;2022-08-19T01:18:58;25;;;22.2;;
44126;SDS011;29786;50.798;7.302;2022-08-19T01:19:58;27.7;;;23.2;;
44126;SDS011;29786;50.798;7.302;2022-08-19T01:21:01;29.3;;;23;;
44126;SDS011;29786;50.798;7.302;2022-08-19T01:22:03;27.6;;;24.1;;
44126;SDS011;29786;50.798;7.302;2022-08-19T01:22:58;26;;;23.2;;
44126;SDS011;29786;50.798;7.302;2022-08-19T01:23:58;27.9;;;22.5;;
44126;SDS011;29786;50.798;7.302;2022-08-19T01:24:58;27.5;;;23.5;;
44126;SDS011;29786;50.798;7.302;2022-08-19T01:25:58;28.5;;;24.1;;
44126;SDS011;29786;50.798;7.302;2022-08-19T01:26:58;29.5;;;24.4;;
44126;SDS011;29786;50.798;7.302;2022-08-19T01:27:58;26.8;;;23.6;;
44126;SDS011;29786;50.798;7.302;2022-08-19T01:28:59;29.6;;;25.1;;
44126;SDS011;29786;50.798;7.302;2022-08-19T01:29:58;28.5;;;25;;
44126;SDS011;29786;50.798;7.302;2022-08-19T01:30:58;34.5;;;26.6;;
44126;SDS011;29786;50.798;7.302;2022-08-19T01:31:58;31.5;;;27.7;;
44126;SDS011;29786;50.798;7.302;2022-08-19T01:32:58;31.6;;;26.2;;
44126;SDS011;29786;50.798;7.302;2022-08-19T01:33:59;34;;;29.1;;
44126;SDS011;29786;50.798;7.302;2022-08-19T01:34:58;28.7;;;25.6;;
44126;SDS011;29786;50.798;7.302;2022-08-19T01:36:07;32.2;;;26.8;;
44126;SDS011;29786;50.798;7.302;2022-08-19T01:36:58;31.4;;;28;;
44126;SDS011;29786;50.798;7.302;2022-08-19T01:38:01;32.8;;;28.3;;
44126;SDS011;29786;50.798;7.302;2022-08-19T01:38:59;27.5;;;23.7;;
44126;SDS011;29786;50.798;7.302;2022-08-19T01:39:58;27.7;;;24.3;;
44126;SDS011;29786;50.798;7.302;2022-08-19T01:40:58;32.2;;;28.2;;
44126;SDS011;29786;50.798;7.302;2022-08-19T01:41:58;26.5;;;23.7;;
44126;SDS011;29786;50.798;7.302;2022-08-19T01:42:59;25.7;;;22.9;;
44126;SDS011;29786;50.798;7.302;2022-08-19T01:43:59;29.5;;;25.6;;
44126;SDS011;29786;50.798;7.302;2022-08-19T01:44:58;28.8;;;25.7;;
44126;SDS011;29786;50.798;7.302;2022-08-19T01:45:59;28.3;;;25.3;;
44126;SDS011;29786;50.798;7.302;2022-08-19T01:46:58;27;;;24.1;;
44126;SDS011;29786;50.798;7.302;2022-08-19T01:47:59;27.8;;;23.9;;
44126;SDS011;29786;50.798;7.302;2022-08-19T01:48:58;25.7;;;21.5;;
44126;SDS011;29786;50.798;7.302;2022-08-19T01:49:58;26.8;;;22.2;;
44126;SDS011;29786;50.798;7.302;2022-08-19T01:50:59;24;;;20.5;;
44126;SDS011;29786;50.798;7.302;2022-08-19T01:51:59;21.7;;;19.4;;
44126;SDS011;29786;50.798;7.302;2022-08-19T01:52:59;21.5;;;18.8;;
44126;SDS011;29786;50.798;7.302;2022-08-19T01:53:58;20.8;;;18.2;;
44126;SDS011;29786;50.798;7.302;2022-08-19T01:54:58;21.2;;;18;;
44126;SDS011;29786;50.798;7.302;2022-08-19T01:55:58;19.4;;;17.4;;
44126;SDS011;29786;50.798;7.302;2022-08-19T01:57:00;21.5;;;19.3;;
44126;SDS011;29786;50.798;7.302;2022-08-19T01:58:00;20.7;;;18.1;;
44126;SDS011;29786;50.798;7.302;2022-08-19T01:59:00;20.3;;;18.3;;
44126;SDS011;29786;50.798;7.302;2022-08-19T01:59:59;20.2;;;17.5;;
44126;SDS011;29786;50.798;7.302;2022-08-19T02:00:58;19.6;;;17;;
44126;SDS011;29786;50.798;7.302;2022-08-19T02:01:58;20.2;;;17.4;;
44126;SDS011;29786;50.798;7.302;2022-08-19T02:02:58;20.5;;;18;;
44126;SDS011;29786;50.798;7.302;2022-08-19T02:03:58;20.3;;;18.2;;
44126;SDS011;29786;50.798;7.302;2022-08-19T02:04:59;23.1;;;20.6;;
44126;SDS011;29786;50.798;7.302;2022-08-19T02:05:59;26.3;;;20.4;;
44126;SDS011;29786;50.798;7.302;2022-08-19T02:06:59;24.7;;;20.8;;
44126;SDS011;29786;50.798;7.302;2022-08-19T02:07:58;24.1;;;21.5;;
44126;SDS011;29786;50.798;7.302;2022-08-19T02:08:58;22.9;;;20;;
44126;SDS011;29786;50.798;7.302;2022-08-19T02:09:58;24.2;;;19.9;;
44126;SDS011;29786;50.798;7.302;2022-08-19T02:10:58;25.5;;;22.3;;
44126;SDS011;29786;50.798;7.302;2022-08-19T02:11:58;23.1;;;20.1;;
44126;SDS011;29786;50.798;7.302;2022-08-19T02:12:59;24.1;;;20.3;;
44126;SDS011;29786;50.798;7.302;2022-08-19T02:13:59;23.7;;;21.1;;
44126;SDS011;29786;50.798;7.302;2022-08-19T02:14:59;25;;;20.5;;
44126;SDS011;29786;50.798;7.302;2022-08-19T02:15:58;25.7;;;21.7;;
44126;SDS011;29786;50.798;7.302;2022-08-19T02:16:58;24.3;;;21.7;;
44126;SDS011;29786;50.798;7.302;2022-08-19T02:17:58;22.9;;;20.3;;
44126;SDS011;29786;50.798;7.302;2022-08-19T02:18:58;24;;;21.2;;
44126;SDS011;29786;50.798;7.302;2022-08-19T02:19:59;25.2;;;21.6;;
44126;SDS011;29786;50.798;7.302;2022-08-19T02:20:58;25.4;;;22;;
44126;SDS011;29786;50.798;7.302;2022-08-19T02:21:59;25.8;;;21.8;;
44126;SDS011;29786;50.798;7.302;2022-08-19T02:22:58;27.5;;;23.5;;
44126;SDS011;29786;50.798;7.302;2022-08-19T02:23:58;29.4;;;22.8;;
44126;SDS011;29786;50.798;7.302;2022-08-19T02:24:58;27.1;;;23.1;;
44126;SDS011;29786;50.798;7.302;2022-08-19T02:25:59;28.2;;;23.3;;
44126;SDS011;29786;50.798;7.302;2022-08-19T02:26:59;26.2;;;23.4;;
44126;SDS011;29786;50.798;7.302;2022-08-19T02:27:58;28.9;;;24.1;;
44126;SDS011;29786;50.798;7.302;2022-08-19T02:28:58;27.5;;;24;;
44126;SDS011;29786;50.798;7.302;2022-08-19T02:29:59;29.4;;;24.2;;
44126;SDS011;29786;50.798;7.302;2022-08-19T02:30:58;25.7;;;22.9;;
44126;SDS011;29786;50.798;7.302;2022-08-19T02:31:58;27.8;;;24.8;;
44126;SDS011;29786;50.798;7.302;2022-08-19T02:32:58;26.4;;;23.3;;
44126;SDS011;29786;50.798;7.302;2022-08-19T02:33:59;27.4;;;23.9;;
44126;SDS011;29786;50.798;7.302;2022-08-19T02:34:59;29.1;;;24.4;;
44126;SDS011;29786;50.798;7.302;2022-08-19T02:35:58;24.8;;;21.5;;
44126;SDS011;29786;50.798;7.302;2022-08-19T02:36:59;29;;;24.4;;
44126;SDS011;29786;50.798;7.302;2022-08-19T02:37:59;29.4;;;23.4;;
44126;SDS011;29786;50.798;7.302;2022-08-19T02:38:58;27.6;;;23;;
44126;SDS011;29786;50.798;7.302;2022-08-19T02:39:58;25;;;20.6;;
44126;SDS011;29786;50.798;7.302;2022-08-19T02:41:00;25.5;;;21.4;;
44126;SDS011;29786;50.798;7.302;2022-08-19T02:41:58;29.2;;;23.7;;
44126;SDS011;29786;50.798;7.302;2022-08-19T02:42:58;27;;;22.1;;
44126;SDS011;29786;50.798;7.302;2022-08-19T02:43:59;28;;;22.9;;
44126;SDS011;29786;50.798;7.302;2022-08-19T02:44:58;27.2;;;22.8;;
44126;SDS011;29786;50.798;7.302;2022-08-19T02:45:58;28;;;22.6;;
44126;SDS011;29786;50.798;7.302;2022-08-19T02:46:58;25.9;;;22.8;;
44126;SDS011;29786;50.798;7.302;2022-08-19T02:47:58;25;;;22.3;;
44126;SDS011;29786;50.798;7.302;2022-08-19T02:49:02;26.5;;;23.6;;
44126;SDS011;29786;50.798;7.302;2022-08-19T02:50:00;27.2;;;23.5;;
44126;SDS011;29786;50.798;7.302;2022-08-19T02:50:58;27.7;;;23;;
44126;SDS011;29786;50.798;7.302;2022-08-19T02:51:58;26.6;;;22.8;;
44126;SDS011;29786;50.798;7.302;2022-08-19T02:52:58;28.5;;;23.3;;
44126;SDS011;29786;50.798;7.302;2022-08-19T02:53:59;26.8;;;23.3;;
44126;SDS011;29786;50.798;7.302;2022-08-19T02:54:59;28.4;;;23.5;;
44126;SDS011;29786;50.798;7.302;2022-08-19T02:55:58;29.4;;;24;;
44126;SDS011;29786;50.798;7.302;2022-08-19T02:56:58;30.3;;;24.7;;
44126;SDS011;29786;50.798;7.302;2022-08-19T02:57:58;28.3;;;23.4;;
44126;SDS011;29786;50.798;7.302;2022-08-19T02:58:58;29.4;;;24.7;;
44126;SDS011;29786;50.798;7.302;2022-08-19T02:59:59;31.5;;;26.2;;
44126;SDS011;29786;50.798;7.302;2022-08-19T03:00:59;28.6;;;25.5;;
44126;SDS011;29786;50.798;7.302;2022-08-19T03:01:58;30.2;;;26.3;;
44126;SDS011;29786;50.798;7.302;2022-08-19T03:02:58;30.7;;;25.8;;
44126;SDS011;29786;50.798;7.302;2022-08-19T03:04:00;32.5;;;26.1;;
44126;SDS011;29786;50.798;7.302;2022-08-19T03:04:59;33.2;;;27.2;;
44126;SDS011;29786;50.798;7.302;2022-08-19T03:06:04;35.9;;;28.2;;
44126;SDS011;29786;50.798;7.302;2022-08-19T03:06:59;33.6;;;27.9;;
44126;SDS011;29786;50.798;7.302;2022-08-19T03:07:59;32;;;27.4;;
44126;SDS011;29786;50.798;7.302;2022-08-19T03:08:58;33.5;;;28.4;;
44126;SDS011;29786;50.798;7.302;2022-08-19T03:09:58;37.6;;;29.8;;
44126;SDS011;29786;50.798;7.302;2022-08-19T03:10:58;33.5;;;28.8;;
44126;SDS011;29786;50.798;7.302;2022-08-19T03:11:58;35.4;;;29.3;;
44126;SDS011;29786;50.798;7.302;2022-08-19T03:12:58;43.1;;;31.2;;
44126;SDS011;29786;50.798;7.302;2022-08-19T03:13:59;36.8;;;31.5;;
44126;SDS011;29786;50.798;7.302;2022-08-19T03:14:59;37.3;;;31.9;;
44126;SDS011;29786;50.798;7.302;2022-08-19T03:15:58;39.2;;;32.4;;
44126;SDS011;29786;50.798;7.302;2022-08-19T03:16:58;39.1;;;33.8;;
44126;SDS011;29786;50.798;7.302;2022-08-19T03:17:58;44.4;;;35.1;;
44126;SDS011;29786;50.798;7.302;2022-08-19T03:18:59;44.3;;;34.7;;
44126;SDS011;29786;50.798;7.302;2022-08-19T03:19:58;44;;;35.5;;
44126;SDS011;29786;50.798;7.302;2022-08-19T03:20:58;45.3;;;35.3;;
44126;SDS011;29786;50.798;7.302;2022-08-19T03:21:58;43.4;;;35.6;;
44126;SDS011;29786;50.798;7.302;2022-08-19T03:22:58;45.3;;;35.9;;
44126;SDS011;29786;50.798;7.302;2022-08-19T03:24:00;43.9;;;34.4;;
44126;SDS011;29786;50.798;7.302;2022-08-19T03:24:58;41.9;;;35.1;;
44126;SDS011;29786;50.798;7.302;2022-08-19T03:25:58;46.5;;;36;;
44126;SDS011;29786;50.798;7.302;2022-08-19T03:26:58;45.1;;;36.6;;
44126;SDS011;29786;50.798;7.302;2022-08-19T03:27:58;44.1;;;36;;
44126;SDS011;29786;50.798;7.302;2022-08-19T03:29:01;41.7;;;35.9;;
44126;SDS011;29786;50.798;7.302;2022-08-19T03:30:04;45.7;;;36.6;;
44126;SDS011;29786;50.798;7.302;2022-08-19T03:31:01;46.9;;;36.9;;
44126;SDS011;29786;50.798;7.302;2022-08-19T03:31:59;48.2;;;38;;
44126;SDS011;29786;50.798;7.302;2022-08-19T03:32:58;46.1;;;36.6;;
44126;SDS011;29786;50.798;7.302;2022-08-19T03:34:04;48.3;;;38.2;;
44126;SDS011;29786;50.798;7.302;2022-08-19T03:34:59;46.3;;;36.3;;
44126;SDS011;29786;50.798;7.302;2022-08-19T03:36:01;41.8;;;35.4;;
44126;SDS011;29786;50.798;7.302;2022-08-19T03:37:02;41.2;;;34.9;;
44126;SDS011;29786;50.798;7.302;2022-08-19T03:37:59;40.6;;;33.1;;
44126;SDS011;29786;50.798;7.302;2022-08-19T03:38:59;38.9;;;31.7;;
44126;SDS011;29786;50.798;7.302;2022-08-19T03:39:58;36.8;;;30.8;;
44126;SDS011;29786;50.798;7.302;2022-08-19T03:41:02;32.6;;;27.4;;
44126;SDS011;29786;50.798;7.302;2022-08-19T03:41:58;30.9;;;27.5;;
44126;SDS011;29786;50.798;7.302;2022-08-19T03:42:59;32.9;;;28.2;;
44126;SDS011;29786;50.798;7.302;2022-08-19T03:43:59;30.8;;;26.6;;
44126;SDS011;29786;50.798;7.302;2022-08-19T03:44:58;32;;;26.1;;
44126;SDS011;29786;50.798;7.302;2022-08-19T03:45:59;30.5;;;26.7;;
44126;SDS011;29786;50.798;7.302;2022-08-19T03:46:59;31.5;;;26.2;;
44126;SDS011;29786;50.798;7.302;2022-08-19T03:47:58;31.1;;;27;;
44126;SDS011;29786;50.798;7.302;2022-08-19T03:48:59;30.2;;;26.7;;
44126;SDS011;29786;50.798;7.302;2022-08-19T03:49:58;31;;;26.1;;
44126;SDS011;29786;50.798;7.302;2022-08-19T03:50:59;30.7;;;25.6;;
44126;SDS011;29786;50.798;7.302;2022-08-19T03:51:59;32.1;;;27;;
44126;SDS011;29786;50.798;7.302;2022-08-19T03:52:58;31.6;;;27.6;;
44126;SDS011;29786;50.798;7.302;2022-08-19T03:53:59;33.7;;;27.7;;
44126;SDS011;29786;50.798;7.302;2022-08-19T03:54:58;33.9;;;27.2;;
44126;SDS011;29786;50.798;7.302;2022-08-19T03:55:58;35;;;28.6;;
44126;SDS011;29786;50.798;7.302;2022-08-19T03:56:59;36.1;;;29.8;;
44126;SDS011;29786;50.798;7.302;2022-08-19T03:57:58;36.6;;;28.9;;
44126;SDS011;29786;50.798;7.302;2022-08-19T03:58:58;37.1;;;30.2;;
44126;SDS011;29786;50.798;7.302;2022-08-19T03:59:59;34.1;;;29.6;;
44126;SDS011;29786;50.798;7.302;2022-08-19T04:00:58;35.1;;;29.2;;
44126;SDS011;29786;50.798;7.302;2022-08-19T04:01:59;36.6;;;29.3;;
44126;SDS011;29786;50.798;7.302;2022-08-19T04:02:58;37.6;;;30.6;;
44126;SDS011;29786;50.798;7.302;2022-08-19T04:03:59;35.3;;;30.7;;
44126;SDS011;29786;50.798;7.302;2022-08-19T04:04:58;35.1;;;29.5;;
44126;SDS011;29786;50.798;7.302;2022-08-19T04:05:58;36.9;;;30.4;;
44126;SDS011;29786;50.798;7.302;2022-08-19T04:06:58;35.6;;;30.3;;
44126;SDS011;29786;50.798;7.302;2022-08-19T04:07:59;36.3;;;30.3;;
44126;SDS011;29786;50.798;7.302;2022-08-19T04:08:59;37.7;;;30.5;;
44126;SDS011;29786;50.798;7.302;2022-08-19T04:09:58;34.7;;;29.6;;
44126;SDS011;29786;50.798;7.302;2022-08-19T04:10:58;35.7;;;30.1;;
44126;SDS011;29786;50.798;7.302;2022-08-19T04:11:59;35.6;;;29.5;;
44126;SDS011;29786;50.798;7.302;2022-08-19T04:12:58;36;;;29.6;;
44126;SDS011;29786;50.798;7.302;2022-08-19T04:13:58;35.9;;;29.7;;
44126;SDS011;29786;50.798;7.302;2022-08-19T04:14:58;36.7;;;29.5;;
44126;SDS011;29786;50.798;7.302;2022-08-19T04:15:58;36.4;;;29.4;;
44126;SDS011;29786;50.798;7.302;2022-08-19T04:16:59;35.6;;;30;;
44126;SDS011;29786;50.798;7.302;2022-08-19T04:17:59;36.8;;;29.4;;
44126;SDS011;29786;50.798;7.302;2022-08-19T04:18:59;35.5;;;29.1;;
44126;SDS011;29786;50.798;7.302;2022-08-19T04:19:59;36.3;;;29.8;;
44126;SDS011;29786;50.798;7.302;2022-08-19T04:20:59;36.4;;;29.6;;
44126;SDS011;29786;50.798;7.302;2022-08-19T04:21:59;35.9;;;29.3;;
44126;SDS011;29786;50.798;7.302;2022-08-19T04:22:59;35.3;;;29.3;;
44126;SDS011;29786;50.798;7.302;2022-08-19T04:23:59;38.6;;;30.4;;
44126;SDS011;29786;50.798;7.302;2022-08-19T04:24:59;37.5;;;30.8;;
44126;SDS011;29786;50.798;7.302;2022-08-19T04:25:59;39.2;;;30.8;;
44126;SDS011;29786;50.798;7.302;2022-08-19T04:26:59;40.9;;;31;;
44126;SDS011;29786;50.798;7.302;2022-08-19T04:27:58;36.6;;;30.1;;
44126;SDS011;29786;50.798;7.302;2022-08-19T04:28:59;38.9;;;30.8;;
44126;SDS011;29786;50.798;7.302;2022-08-19T04:29:58;36.5;;;30.8;;
44126;SDS011;29786;50.798;7.302;2022-08-19T04:30:58;37.9;;;29.8;;
44126;SDS011;29786;50.798;7.302;2022-08-19T04:31:59;37.7;;;30.8;;
44126;SDS011;29786;50.798;7.302;2022-08-19T04:32:59;35.9;;;31;;
44126;SDS011;29786;50.798;7.302;2022-08-19T04:33:59;36;;;29.3;;
44126;SDS011;29786;50.798;7.302;2022-08-19T04:34:58;38.5;;;30.4;;
44126;SDS011;29786;50.798;7.302;2022-08-19T04:35:58;37.4;;;30.5;;
44126;SDS011;29786;50.798;7.302;2022-08-19T04:36:58;34.9;;;30;;
44126;SDS011;29786;50.798;7.302;2022-08-19T04:37:58;38.1;;;30.1;;
44126;SDS011;29786;50.798;7.302;2022-08-19T04:38:59;35.8;;;29.5;;
44126;SDS011;29786;50.798;7.302;2022-08-19T04:39:59;36.7;;;29.8;;
44126;SDS011;29786;50.798;7.302;2022-08-19T04:40:58;36.9;;;28.7;;
44126;SDS011;29786;50.798;7.302;2022-08-19T04:41:58;36;;;29.3;;
44126;SDS011;29786;50.798;7.302;2022-08-19T04:42:58;34.5;;;28.2;;
44126;SDS011;29786;50.798;7.302;2022-08-19T04:43:59;32.3;;;28;;
44126;SDS011;29786;50.798;7.302;2022-08-19T04:44:58;32.8;;;26.7;;
44126;SDS011;29786;50.798;7.302;2022-08-19T04:46:03;32.7;;;27;;
44126;SDS011;29786;50.798;7.302;2022-08-19T04:46:59;36;;;28.4;;
44126;SDS011;29786;50.798;7.302;2022-08-19T04:47:59;34.3;;;27.6;;
44126;SDS011;29786;50.798;7.302;2022-08-19T04:48:59;30.6;;;26.4;;
44126;SDS011;29786;50.798;7.302;2022-08-19T04:49:58;31.7;;;26.7;;
44126;SDS011;29786;50.798;7.302;2022-08-19T04:50:58;31.1;;;26.4;;
44126;SDS011;29786;50.798;7.302;2022-08-19T04:51:58;30.6;;;25.9;;
44126;SDS011;29786;50.798;7.302;2022-08-19T04:52:58;32.3;;;27.1;;
44126;SDS011;29786;50.798;7.302;2022-08-19T04:53:59;31.1;;;26.6;;
44126;SDS011;29786;50.798;7.302;2022-08-19T04:54:59;33.1;;;28.5;;
44126;SDS011;29786;50.798;7.302;2022-08-19T04:55:59;30.5;;;26.3;;
44126;SDS011;29786;50.798;7.302;2022-08-19T04:56:59;33.2;;;27.8;;
44126;SDS011;29786;50.798;7.302;2022-08-19T04:57:59;33.6;;;27.6;;
44126;SDS011;29786;50.798;7.302;2022-08-19T04:58:59;38.3;;;28;;
44126;SDS011;29786;50.798;7.302;2022-08-19T04:59:59;31.8;;;27;;
44126;SDS011;29786;50.798;7.302;2022-08-19T05:00:59;34.9;;;28.6;;
44126;SDS011;29786;50.798;7.302;2022-08-19T05:01:58;35.8;;;28.2;;
44126;SDS011;29786;50.798;7.302;2022-08-19T05:02:58;36;;;29.3;;
44126;SDS011;29786;50.798;7.302;2022-08-19T05:03:59;35.5;;;29.3;;
44126;SDS011;29786;50.798;7.302;2022-08-19T05:04:58;39.6;;;29.4;;
44126;SDS011;29786;50.798;7.302;2022-08-19T05:06:03;36.4;;;30;;
44126;SDS011;29786;50.798;7.302;2022-08-19T05:06:59;33.7;;;28.6;;
44126;SDS011;29786;50.798;7.302;2022-08-19T05:07:59;36.5;;;29.9;;
44126;SDS011;29786;50.798;7.302;2022-08-19T05:08:59;36.8;;;29.9;;
44126;SDS011;29786;50.798;7.302;2022-08-19T05:09:58;35.4;;;29.5;;
44126;SDS011;29786;50.798;7.302;2022-08-19T05:10:58;33.3;;;28.7;;
44126;SDS011;29786;50.798;7.302;2022-08-19T05:11:58;36.3;;;29.4;;
44126;SDS011;29786;50.798;7.302;2022-08-19T05:12:58;35.1;;;29.4;;
44126;SDS011;29786;50.798;7.302;2022-08-19T05:13:59;35.5;;;29.3;;
44126;SDS011;29786;50.798;7.302;2022-08-19T05:14:59;35.3;;;28.9;;
44126;SDS011;29786;50.798;7.302;2022-08-19T05:15:59;35.4;;;30.1;;
44126;SDS011;29786;50.798;7.302;2022-08-19T05:17:00;38;;;30.5;;
44126;SDS011;29786;50.798;7.302;2022-08-19T05:17:59;34.7;;;29.4;;
44126;SDS011;29786;50.798;7.302;2022-08-19T05:18:58;35.5;;;29;;
44126;SDS011;29786;50.798;7.302;2022-08-19T05:19:58;36;;;29.6;;
44126;SDS011;29786;50.798;7.302;2022-08-19T05:20:59;34.2;;;28.7;;
44126;SDS011;29786;50.798;7.302;2022-08-19T05:21:59;36.1;;;30.5;;
44126;SDS011;29786;50.798;7.302;2022-08-19T05:22:58;36.3;;;29.2;;
44126;SDS011;29786;50.798;7.302;2022-08-19T05:23:59;33;;;29;;
44126;SDS011;29786;50.798;7.302;2022-08-19T05:24:58;36.3;;;30.3;;
44126;SDS011;29786;50.798;7.302;2022-08-19T05:25:58;35.9;;;30.3;;
44126;SDS011;29786;50.798;7.302;2022-08-19T05:26:58;34.9;;;29.5;;
44126;SDS011;29786;50.798;7.302;2022-08-19T05:27:58;36.5;;;30.3;;
44126;SDS011;29786;50.798;7.302;2022-08-19T05:28:58;36.4;;;30.5;;
44126;SDS011;29786;50.798;7.302;2022-08-19T05:29:59;38.3;;;30.9;;
44126;SDS011;29786;50.798;7.302;2022-08-19T05:30:58;36.9;;;30.8;;
44126;SDS011;29786;50.798;7.302;2022-08-19T05:31:58;39.4;;;31.2;;
44126;SDS011;29786;50.798;7.302;2022-08-19T05:32:58;39.5;;;31.9;;
44126;SDS011;29786;50.798;7.302;2022-08-19T05:33:58;40.8;;;31.4;;
44126;SDS011;29786;50.798;7.302;2022-08-19T05:34:59;39;;;32.1;;
44126;SDS011;29786;50.798;7.302;2022-08-19T05:35:58;38.8;;;32.2;;
44126;SDS011;29786;50.798;7.302;2022-08-19T05:36:58;39.7;;;32.5;;
44126;SDS011;29786;50.798;7.302;2022-08-19T05:37:58;38;;;32.5;;
44126;SDS011;29786;50.798;7.302;2022-08-19T05:38:59;37.5;;;31.6;;
44126;SDS011;29786;50.798;7.302;2022-08-19T05:39:58;38.8;;;30.8;;
44126;SDS011;29786;50.798;7.302;2022-08-19T05:40:58;39.1;;;32.6;;
44126;SDS011;29786;50.798;7.302;2022-08-19T05:42:00;37.6;;;31.9;;
44126;SDS011;29786;50.798;7.302;2022-08-19T05:42:58;37.9;;;31.1;;
44126;SDS011;29786;50.798;7.302;2022-08-19T05:44:01;36.2;;;31.7;;
44126;SDS011;29786;50.798;7.302;2022-08-19T05:44:58;37.1;;;31.4;;
44126;SDS011;29786;50.798;7.302;2022-08-19T05:45:58;37.5;;;31.1;;
44126;SDS011;29786;50.798;7.302;2022-08-19T05:47:00;37.6;;;31.8;;
44126;SDS011;29786;50.798;7.302;2022-08-19T05:47:59;35.5;;;30.2;;
44126;SDS011;29786;50.798;7.302;2022-08-19T05:48:59;38.5;;;31.2;;
44126;SDS011;29786;50.798;7.302;2022-08-19T05:49:59;36.1;;;29.9;;
44126;SDS011;29786;50.798;7.302;2022-08-19T05:51:03;39.5;;;31.3;;
44126;SDS011;29786;50.798;7.302;2022-08-19T05:52:01;34.2;;;30.1;;
44126;SDS011;29786;50.798;7.302;2022-08-19T05:52:58;38.1;;;31.1;;
44126;SDS011;29786;50.798;7.302;2022-08-19T05:53:58;38.2;;;30.4;;
44126;SDS011;29786;50.798;7.302;2022-08-19T05:54:58;35.5;;;29.1;;
44126;SDS011;29786;50.798;7.302;2022-08-19T05:56:03;35.8;;;29.9;;
44126;SDS011;29786;50.798;7.302;2022-08-19T05:57:00;34;;;29;;
44126;SDS011;29786;50.798;7.302;2022-08-19T05:57:58;34.1;;;28.9;;
44126;SDS011;29786;50.798;7.302;2022-08-19T05:58:58;30.5;;;27.2;;
44126;SDS011;29786;50.798;7.302;2022-08-19T05:59:58;32.5;;;28.8;;
44126;SDS011;29786;50.798;7.302;2022-08-19T06:00:59;34.3;;;28;;
44126;SDS011;29786;50.798;7.302;2022-08-19T06:01:58;35.2;;;28.7;;
44126;SDS011;29786;50.798;7.302;2022-08-19T06:02:59;34.3;;;28.7;;
44126;SDS011;29786;50.798;7.302;2022-08-19T06:03:59;34.4;;;28.6;;